createdAt,value
2022-12-11T00:00:41.095Z,0.91
2022-12-11T00:03:15.367Z,0.82
2022-12-11T00:05:43.676Z,0.83
2022-12-11T00:08:13.608Z,0.97
2022-12-11T00:10:41.961Z,0.95
2022-12-11T00:13:09.837Z,0.96
2022-12-11T00:15:39.311Z,1.19
2022-12-11T00:18:07.205Z,1.18
2022-12-11T00:20:35.090Z,1.03
2022-12-11T00:23:02.955Z,0.91
2022-12-11T00:25:32.457Z,1.00
2022-12-11T00:28:00.334Z,1.02
2022-12-11T00:30:28.309Z,0.93
2022-12-11T00:32:56.337Z,0.89
2022-12-11T00:35:24.322Z,0.78
2022-12-11T00:37:52.435Z,0.89
2022-12-11T00:40:20.280Z,0.99
2022-12-11T00:42:49.499Z,0.90
2022-12-11T00:45:17.480Z,1.01
2022-12-11T00:47:45.414Z,1.23
2022-12-11T00:50:13.389Z,1.16
2022-12-11T00:52:41.301Z,1.08
2022-12-11T00:55:09.799Z,1.11
2022-12-11T00:57:39.127Z,1.04
2022-12-11T01:00:09.820Z,1.10
2022-12-11T01:02:37.990Z,1.03
2022-12-11T01:05:07.611Z,1.11
2022-12-11T01:07:36.042Z,1.16
2022-12-11T01:10:22.333Z,1.19
2022-12-11T01:12:50.579Z,1.10
2022-12-11T01:15:20.343Z,1.24
2022-12-11T01:17:48.580Z,1.31
2022-12-11T01:20:18.900Z,1.23
2022-12-11T01:22:47.026Z,1.16
2022-12-11T01:25:15.457Z,1.12
2022-12-11T01:27:43.944Z,1.18
2022-12-11T01:30:12.680Z,1.24
2022-12-11T01:32:42.095Z,1.23
2022-12-11T01:35:11.449Z,1.24
2022-12-11T01:37:40.118Z,1.25
2022-12-11T01:40:09.673Z,1.27
2022-12-11T01:42:38.153Z,0.99
2022-12-11T01:45:27.256Z,1.07
2022-12-11T01:48:04.853Z,1.11
2022-12-11T01:50:35.457Z,0.93
2022-12-11T01:53:08.186Z,0.89
2022-12-11T01:55:37.275Z,0.91
2022-12-11T01:58:06.675Z,0.96
2022-12-11T02:00:34.720Z,0.89
2022-12-11T02:03:04.108Z,0.89
2022-12-11T02:05:32.035Z,0.93
2022-12-11T02:08:02.534Z,1.01
2022-12-11T02:10:45.060Z,0.79
2022-12-11T02:13:19.160Z,0.70
2022-12-11T02:15:52.214Z,0.77
2022-12-11T02:18:28.832Z,0.75
2022-12-11T02:21:02.344Z,0.73
2022-12-11T02:24:15.282Z,0.63
2022-12-11T02:27:02.079Z,0.58
2022-12-11T02:29:36.543Z,0.69
2022-12-11T02:32:10.197Z,0.59
2022-12-11T02:34:41.964Z,0.72
2022-12-11T02:37:16.246Z,0.75
2022-12-11T02:39:49.416Z,0.49
2022-12-11T02:42:17.872Z,0.52
2022-12-11T02:44:50.226Z,0.57
2022-12-11T02:47:20.152Z,0.46
2022-12-11T02:49:51.443Z,0.48
2022-12-11T02:52:23.318Z,0.33
2022-12-11T02:54:55.487Z,0.42
2022-12-11T02:57:28.626Z,0.56
2022-12-11T02:59:58.550Z,0.67
2022-12-11T03:02:26.545Z,0.67
2022-12-11T03:04:55.154Z,0.72
2022-12-11T03:07:26.369Z,0.57
2022-12-11T03:09:54.872Z,0.69
2022-12-11T03:12:27.260Z,0.74
2022-12-11T03:14:55.675Z,0.71
2022-12-11T03:17:30.280Z,0.79
2022-12-11T03:20:07.532Z,0.82
2022-12-11T03:22:40.356Z,0.76
2022-12-11T03:25:11.294Z,0.68
2022-12-11T03:27:46.419Z,0.78
2022-12-11T03:30:17.963Z,0.54
2022-12-11T03:32:52.994Z,0.68
2022-12-11T03:35:26.332Z,0.62
2022-12-11T03:37:55.584Z,0.47
2022-12-11T03:40:26.981Z,0.61
2022-12-11T03:42:57.856Z,0.57
2022-12-11T03:45:26.976Z,0.68
2022-12-11T03:47:58.991Z,0.72
2022-12-11T03:50:29.799Z,0.79
2022-12-11T03:52:59.055Z,0.76
2022-12-11T03:55:28.166Z,0.68
2022-12-11T03:57:56.150Z,0.49
2022-12-11T04:00:24.409Z,0.31
2022-12-11T04:03:12.702Z,0.27
2022-12-11T04:05:43.456Z,0.38
2022-12-11T04:08:11.810Z,0.38
2022-12-11T04:10:39.833Z,0.59
2022-12-11T04:13:07.956Z,0.75
2022-12-11T04:15:41.366Z,0.68
2022-12-11T04:18:27.424Z,0.67
2022-12-11T04:21:14.514Z,0.70
2022-12-11T04:23:59.804Z,0.45
2022-12-11T04:26:27.824Z,0.46
2022-12-11T04:28:56.115Z,0.60
2022-12-11T04:31:24.418Z,0.38
2022-12-11T04:33:52.411Z,0.46
2022-12-11T04:36:21.663Z,0.55
2022-12-11T04:38:49.571Z,0.56
2022-12-11T04:41:18.156Z,0.61
2022-12-11T04:43:46.242Z,0.56
2022-12-11T04:46:16.747Z,0.69
2022-12-11T04:48:45.456Z,0.82
2022-12-11T04:51:14.210Z,0.81
2022-12-11T04:53:43.941Z,0.71
2022-12-11T04:56:14.601Z,0.77
2022-12-11T04:58:43.275Z,0.75
2022-12-11T05:01:12.113Z,0.85
2022-12-11T05:03:40.566Z,0.91
2022-12-11T05:06:09.749Z,0.99
2022-12-11T05:08:40.390Z,0.96
2022-12-11T05:11:11.410Z,0.82
2022-12-11T05:13:39.891Z,0.74
2022-12-11T05:16:12.192Z,0.78
2022-12-11T05:18:40.774Z,0.72
2022-12-11T05:21:10.886Z,0.80
2022-12-11T05:23:41.367Z,0.87
2022-12-11T05:26:13.787Z,0.87
2022-12-11T05:28:42.417Z,1.07
2022-12-11T05:31:13.910Z,1.19
2022-12-11T05:33:45.558Z,1.16
2022-12-11T05:36:18.332Z,1.12
2022-12-11T05:38:46.665Z,1.16
2022-12-11T05:41:18.149Z,1.16
2022-12-11T05:43:46.634Z,1.17
2022-12-11T05:46:19.180Z,1.06
2022-12-11T05:48:54.628Z,1.00
2022-12-11T05:51:22.933Z,1.11
2022-12-11T05:53:51.898Z,1.16
2022-12-11T05:56:23.425Z,1.17
2022-12-11T05:58:51.861Z,1.22
2022-12-11T06:01:23.091Z,1.25
2022-12-11T06:03:50.976Z,1.10
2022-12-11T06:06:19.116Z,1.07
2022-12-11T06:08:47.057Z,1.01
2022-12-11T06:11:18.377Z,0.92
2022-12-11T06:13:50.385Z,0.83
2022-12-11T06:16:18.432Z,0.86
2022-12-11T06:18:47.177Z,0.91
2022-12-11T06:21:16.564Z,0.85
2022-12-11T06:23:45.656Z,0.89
2022-12-11T06:26:13.955Z,0.89
2022-12-11T06:28:41.917Z,0.91
2022-12-11T06:31:11.304Z,0.88
2022-12-11T06:33:39.424Z,0.88
2022-12-11T06:36:09.946Z,0.84
2022-12-11T06:38:38.159Z,0.74
2022-12-11T06:41:07.239Z,0.73
2022-12-11T06:43:36.483Z,0.68
2022-12-11T06:46:06.286Z,0.73
2022-12-11T06:48:35.877Z,0.66
2022-12-11T06:51:08.235Z,0.66
2022-12-11T06:53:37.127Z,0.61
2022-12-11T06:56:05.995Z,0.62
2022-12-11T06:58:35.253Z,0.63
2022-12-11T07:01:03.477Z,0.70
2022-12-11T07:03:31.727Z,0.75
2022-12-11T07:06:03.201Z,0.68
2022-12-11T07:08:32.044Z,0.63
2022-12-11T07:11:04.545Z,0.50
2022-12-11T07:13:33.732Z,0.50
2022-12-11T07:16:04.552Z,0.54
2022-12-11T07:18:33.800Z,0.61
2022-12-11T07:21:03.151Z,0.57
2022-12-11T07:23:31.035Z,0.65
2022-12-11T07:25:59.033Z,0.67
2022-12-11T07:28:27.210Z,0.69
2022-12-11T07:30:55.259Z,0.62
2022-12-11T07:33:23.673Z,0.47
2022-12-11T07:35:51.741Z,0.36
2022-12-11T07:38:21.089Z,0.42
2022-12-11T07:40:49.221Z,0.26
2022-12-11T07:43:17.371Z,0.30
2022-12-11T07:45:45.371Z,0.40
2022-12-11T07:48:13.336Z,0.40
2022-12-11T07:50:41.147Z,0.23
2022-12-11T07:53:09.458Z,0.09
2022-12-11T07:55:39.211Z,0.11
2022-12-11T07:58:07.288Z,0.05
2022-12-11T08:00:35.374Z,-0.06
2022-12-11T08:03:04.440Z,-0.19
2022-12-11T08:05:32.638Z,-0.15
2022-12-11T08:08:01.171Z,-0.21
2022-12-11T08:10:29.328Z,-0.30
2022-12-11T08:12:59.379Z,-0.35
2022-12-11T08:15:27.918Z,-0.40
2022-12-11T08:17:55.931Z,-0.34
2022-12-11T08:20:26.325Z,-0.25
2022-12-11T08:22:59.004Z,-0.24
2022-12-11T08:25:29.671Z,-0.23
2022-12-11T08:27:58.998Z,-0.26
2022-12-11T08:30:27.072Z,-0.26
2022-12-11T08:32:54.980Z,-0.22
2022-12-11T08:35:22.999Z,-0.39
2022-12-11T08:37:51.261Z,-0.56
2022-12-11T08:40:20.316Z,-0.64
2022-12-11T08:42:48.320Z,-0.61
2022-12-11T08:45:17.789Z,-0.46
2022-12-11T08:47:45.824Z,-0.51
2022-12-11T08:50:14.056Z,-0.40
2022-12-11T08:52:42.000Z,-0.40
2022-12-11T08:55:11.671Z,-0.39
2022-12-11T08:57:40.231Z,-0.33
2022-12-11T09:00:10.240Z,-0.41
2022-12-11T09:02:39.657Z,-0.36
2022-12-11T09:05:10.174Z,-0.29
2022-12-11T09:07:39.448Z,-0.23
2022-12-11T09:10:10.454Z,-0.46
2022-12-11T09:12:39.015Z,-0.31
2022-12-11T09:15:07.873Z,-0.30
2022-12-11T09:17:36.466Z,-0.33
2022-12-11T09:20:06.748Z,-0.27
2022-12-11T09:22:35.159Z,-0.14
2022-12-11T09:25:03.193Z,-0.02
2022-12-11T09:27:31.017Z,0.08
2022-12-11T09:30:00.340Z,0.09
2022-12-11T09:32:29.161Z,0.06
2022-12-11T09:34:57.179Z,0.15
2022-12-11T09:37:26.369Z,0.23
2022-12-11T09:39:54.286Z,0.26
2022-12-11T09:42:29.098Z,0.19
2022-12-11T09:45:01.198Z,0.22
2022-12-11T09:47:35.450Z,0.27
2022-12-11T09:50:12.938Z,0.40
2022-12-11T09:52:58.906Z,0.46
2022-12-11T09:55:31.354Z,0.46
2022-12-11T09:58:08.158Z,0.58
2022-12-11T10:00:41.150Z,0.63
2022-12-11T10:03:48.618Z,0.71
2022-12-11T10:06:22.166Z,0.68
2022-12-11T10:09:00.440Z,0.65
2022-12-11T10:11:56.357Z,0.73
2022-12-11T10:14:37.326Z,0.71
2022-12-11T10:17:11.774Z,0.66
2022-12-11T10:19:42.265Z,0.73
2022-12-11T10:22:17.829Z,0.77
2022-12-11T10:25:11.865Z,0.74
2022-12-11T10:27:41.598Z,0.63
2022-12-11T10:30:16.960Z,0.76
2022-12-11T10:32:52.428Z,0.74
2022-12-11T10:35:29.350Z,0.81
2022-12-11T10:38:00.614Z,0.86
2022-12-11T10:40:32.265Z,0.84
2022-12-11T10:43:00.083Z,0.91
2022-12-11T10:45:27.899Z,0.87
2022-12-11T10:48:04.521Z,0.94
2022-12-11T10:50:32.553Z,0.87
2022-12-11T10:53:00.527Z,0.90
2022-12-11T10:55:44.936Z,0.84
2022-12-11T10:58:19.228Z,0.91
2022-12-11T11:00:48.086Z,0.84
2022-12-11T11:03:23.880Z,0.77
2022-12-11T11:06:02.920Z,0.80
2022-12-11T11:08:44.563Z,0.95
2022-12-11T11:11:24.196Z,0.98
2022-12-11T11:13:52.324Z,0.98
2022-12-11T11:16:23.231Z,0.85
2022-12-11T11:18:56.058Z,0.88
2022-12-11T11:21:26.067Z,1.05
2022-12-11T11:23:55.528Z,1.20
2022-12-11T11:26:38.265Z,1.31
2022-12-11T11:29:27.463Z,1.22
2022-12-11T11:31:55.988Z,1.24
2022-12-11T11:34:26.180Z,1.24
2022-12-11T11:37:00.714Z,1.28
2022-12-11T11:39:34.022Z,1.20
2022-12-11T11:42:12.003Z,1.24
2022-12-11T11:44:44.319Z,1.27
2022-12-11T11:47:16.185Z,1.20
2022-12-11T11:49:56.563Z,1.31
2022-12-11T11:52:30.839Z,1.35
2022-12-11T11:55:10.333Z,1.22
2022-12-11T11:57:45.065Z,1.32
2022-12-11T12:00:21.473Z,1.28
2022-12-11T12:02:54.428Z,1.23
2022-12-11T12:05:27.457Z,1.41
2022-12-11T12:08:07.429Z,1.51
2022-12-11T12:10:45.043Z,1.41
2022-12-11T12:13:52.337Z,1.53
2022-12-11T12:16:51.661Z,1.55
2022-12-11T12:19:22.445Z,1.56
2022-12-11T12:21:54.827Z,1.58
2022-12-11T12:24:37.049Z,1.55
2022-12-11T12:27:50.370Z,1.67
2022-12-11T12:30:15.053Z,1.60
2022-12-11T12:33:02.298Z,1.69
2022-12-11T12:35:36.768Z,1.87
2022-12-11T12:38:12.100Z,1.87
2022-12-11T12:40:51.604Z,1.97
2022-12-11T12:43:43.249Z,2.00
2022-12-11T12:46:22.683Z,2.04
2022-12-11T12:48:52.662Z,2.09
2022-12-11T12:51:21.200Z,2.33
2022-12-11T12:53:54.031Z,2.49
2022-12-11T12:56:25.650Z,2.50
2022-12-11T12:58:53.845Z,2.61
2022-12-11T13:01:25.573Z,2.44
2022-12-11T13:03:59.305Z,2.51
2022-12-11T13:06:34.311Z,2.45
2022-12-11T13:09:15.461Z,2.48
2022-12-11T13:11:44.732Z,2.32
2022-12-11T13:14:28.783Z,2.37
2022-12-11T13:17:26.385Z,2.31
2022-12-11T13:20:15.299Z,2.41
2022-12-11T13:22:57.451Z,2.49
2022-12-11T13:25:29.735Z,2.24
2022-12-11T13:28:08.107Z,2.41
2022-12-11T13:30:36.424Z,2.42
2022-12-11T13:33:08.725Z,2.60
2022-12-11T13:35:37.437Z,2.72
2022-12-11T13:38:09.244Z,2.66
2022-12-11T13:40:43.301Z,2.70
2022-12-11T13:43:19.639Z,2.68
2022-12-11T13:45:51.881Z,2.63
2022-12-11T13:48:27.061Z,2.65
2022-12-11T13:50:56.724Z,2.75
2022-12-11T13:53:25.123Z,2.80
2022-12-11T13:56:00.463Z,2.80
2022-12-11T13:58:31.093Z,2.82
2022-12-11T14:01:07.712Z,2.78
2022-12-11T14:03:37.113Z,2.77
2022-12-11T14:06:12.051Z,2.71
2022-12-11T14:08:46.139Z,2.67
2022-12-11T14:11:23.041Z,2.65
2022-12-11T14:13:51.541Z,2.61
2022-12-11T14:16:23.157Z,2.62
2022-12-11T14:18:56.591Z,2.63
2022-12-11T14:21:26.751Z,2.59
2022-12-11T14:23:56.837Z,2.54
2022-12-11T14:26:26.639Z,2.50
2022-12-11T14:28:55.677Z,2.38
2022-12-11T14:31:30.727Z,2.41
2022-12-11T14:34:04.998Z,2.56
2022-12-11T14:36:34.354Z,2.64
2022-12-11T14:39:06.687Z,2.69
2022-12-11T14:41:44.131Z,2.76
2022-12-11T14:44:16.922Z,2.78
2022-12-11T14:46:49.450Z,2.81
2022-12-11T14:49:25.804Z,2.85
2022-12-11T14:51:56.736Z,2.90
2022-12-11T14:54:31.022Z,2.96
2022-12-11T14:57:00.259Z,2.97
2022-12-11T14:59:32.577Z,2.98
2022-12-11T15:02:03.173Z,2.94
2022-12-11T15:04:34.664Z,3.00
2022-12-11T15:07:02.666Z,2.98
2022-12-11T15:09:40.721Z,3.05
2022-12-11T15:12:15.397Z,3.09
2022-12-11T15:14:50.200Z,3.15
2022-12-11T15:17:18.865Z,3.16
2022-12-11T15:19:51.235Z,3.09
2022-12-11T15:22:25.294Z,3.06
2022-12-11T15:24:55.351Z,3.07
2022-12-11T15:27:31.949Z,3.06
2022-12-11T15:30:00.075Z,3.05
2022-12-11T15:32:28.240Z,3.06
2022-12-11T15:34:59.297Z,3.09
2022-12-11T15:37:29.032Z,3.14
2022-12-11T15:39:58.936Z,3.00
2022-12-11T15:42:33.333Z,2.92
2022-12-11T15:45:02.068Z,2.91
2022-12-11T15:47:31.519Z,2.92
2022-12-11T15:50:03.369Z,2.81
2022-12-11T15:52:34.435Z,2.74
2022-12-11T15:55:02.377Z,2.84
2022-12-11T15:57:30.680Z,2.80
2022-12-11T15:59:59.591Z,2.84
2022-12-11T16:02:34.169Z,2.89
2022-12-11T16:05:03.483Z,2.68
2022-12-11T16:07:31.448Z,2.69
2022-12-11T16:09:59.523Z,2.71
2022-12-11T16:12:27.503Z,2.75
2022-12-11T16:14:55.418Z,2.57
2022-12-11T16:17:25.883Z,2.55
2022-12-11T16:19:55.297Z,2.44
2022-12-11T16:22:24.688Z,2.39
2022-12-11T16:24:54.624Z,2.35
2022-12-11T16:27:23.545Z,2.47
2022-12-11T16:29:52.082Z,2.64
2022-12-11T16:32:20.150Z,2.71
2022-12-11T16:34:48.180Z,2.76
2022-12-11T16:37:16.165Z,2.73
2022-12-11T16:39:46.880Z,2.69
2022-12-11T16:42:14.909Z,2.59
2022-12-11T16:44:44.306Z,2.53
2022-12-11T16:47:12.604Z,2.69
2022-12-11T16:49:40.721Z,2.81
2022-12-11T16:52:08.938Z,2.83
2022-12-11T16:54:37.110Z,2.75
2022-12-11T16:57:06.758Z,2.87
2022-12-11T16:59:37.450Z,2.93
2022-12-11T17:02:06.112Z,2.98
2022-12-11T17:04:34.151Z,3.01
2022-12-11T17:07:04.855Z,2.97
2022-12-11T17:09:33.938Z,2.89
2022-12-11T17:12:03.854Z,2.65
2022-12-11T17:14:33.250Z,2.61
2022-12-11T17:17:01.250Z,2.63
2022-12-11T17:19:29.156Z,2.68
2022-12-11T17:21:59.587Z,2.82
2022-12-11T17:24:27.835Z,2.88
2022-12-11T17:26:56.240Z,2.95
2022-12-11T17:29:26.680Z,2.97
2022-12-11T17:31:56.476Z,2.87
2022-12-11T17:34:24.489Z,2.82
2022-12-11T17:36:52.610Z,2.67
2022-12-11T17:39:20.646Z,2.65
2022-12-11T17:41:48.594Z,2.69
2022-12-11T17:44:16.807Z,2.82
2022-12-11T17:46:47.826Z,2.94
2022-12-11T17:49:17.166Z,2.92
2022-12-11T17:51:45.200Z,2.91
2022-12-11T17:54:13.171Z,2.86
2022-12-11T17:56:44.700Z,2.69
2022-12-11T17:59:12.968Z,2.67
2022-12-11T18:01:41.050Z,2.38
2022-12-11T18:04:09.105Z,2.37
2022-12-11T18:06:38.852Z,2.36
2022-12-11T18:09:07.349Z,2.47
2022-12-11T18:11:38.196Z,2.57
2022-12-11T18:14:06.803Z,2.62
2022-12-11T18:16:38.254Z,2.73
2022-12-11T18:19:08.639Z,2.62
2022-12-11T18:21:42.768Z,2.56
2022-12-11T18:24:11.967Z,2.43
2022-12-11T18:26:44.330Z,2.31
2022-12-11T18:29:12.718Z,2.31
2022-12-11T18:31:42.921Z,2.44
2022-12-11T18:34:12.114Z,2.45
2022-12-11T18:36:42.814Z,2.51
2022-12-11T18:39:11.127Z,2.38
2022-12-11T18:41:39.136Z,2.28
2022-12-11T18:44:09.947Z,2.29
2022-12-11T18:46:40.156Z,2.14
2022-12-11T18:49:08.154Z,2.07
2022-12-11T18:51:36.496Z,1.83
2022-12-11T18:54:06.323Z,1.96
2022-12-11T18:56:37.284Z,2.12
2022-12-11T18:59:05.739Z,2.00
2022-12-11T19:01:34.725Z,2.09
2022-12-11T19:04:06.709Z,2.27
2022-12-11T19:06:40.887Z,2.38
2022-12-11T19:09:10.493Z,2.44
2022-12-11T19:11:41.478Z,2.42
2022-12-11T19:14:11.298Z,2.38
2022-12-11T19:16:41.850Z,2.30
2022-12-11T19:19:12.875Z,2.32
2022-12-11T19:21:41.027Z,2.37
2022-12-11T19:24:14.989Z,2.25
2022-12-11T19:26:43.345Z,2.17
2022-12-11T19:29:11.303Z,2.18
2022-12-11T19:31:39.523Z,2.18
2022-12-11T19:34:07.505Z,2.31
2022-12-11T19:36:37.414Z,2.42
2022-12-11T19:39:11.294Z,2.47
2022-12-11T19:41:42.791Z,2.50
2022-12-11T19:44:11.091Z,2.60
2022-12-11T19:46:39.479Z,2.65
2022-12-11T19:49:07.551Z,2.64
2022-12-11T19:51:39.434Z,2.53
2022-12-11T19:54:09.348Z,2.51
2022-12-11T19:56:37.390Z,2.53
2022-12-11T19:59:08.550Z,2.60
2022-12-11T20:01:38.301Z,2.62
2022-12-11T20:04:08.513Z,2.68
2022-12-11T20:06:38.483Z,2.77
2022-12-11T20:09:11.059Z,2.71
2022-12-11T20:11:40.878Z,2.66
2022-12-11T20:14:10.434Z,2.77
2022-12-11T20:17:09.115Z,2.81
2022-12-11T20:19:27.792Z,2.83
2022-12-11T20:21:55.969Z,2.84
2022-12-11T20:24:25.972Z,2.79
2022-12-11T20:26:54.984Z,2.76
2022-12-11T20:29:24.393Z,2.76
2022-12-11T20:31:53.847Z,2.77
2022-12-11T20:34:21.904Z,2.76
2022-12-11T20:36:49.864Z,2.76
2022-12-11T20:39:20.748Z,2.70
2022-12-11T20:41:51.886Z,2.67
2022-12-11T20:44:20.313Z,2.71
2022-12-11T20:46:51.150Z,2.76
2022-12-11T20:49:20.257Z,2.78
2022-12-11T20:51:48.608Z,2.79
2022-12-11T20:54:16.716Z,2.77
2022-12-11T20:56:44.708Z,2.79
2022-12-11T20:59:13.319Z,2.85
2022-12-11T21:01:41.950Z,2.74
2022-12-11T21:04:11.482Z,2.70
2022-12-11T21:06:43.436Z,2.69
2022-12-11T21:09:14.746Z,2.67
2022-12-11T21:11:42.646Z,2.63
2022-12-11T21:14:11.410Z,2.57
2022-12-11T21:16:39.769Z,2.58
2022-12-11T21:19:12.455Z,2.60
2022-12-11T21:21:46.659Z,2.54
2022-12-11T21:24:17.353Z,2.61
2022-12-11T21:26:45.986Z,2.66
2022-12-11T21:29:14.860Z,2.65
2022-12-11T21:31:43.368Z,2.69
2022-12-11T21:34:11.579Z,2.65
2022-12-11T21:36:39.892Z,2.74
2022-12-11T21:39:09.947Z,2.57
2022-12-11T21:41:42.487Z,2.65
2022-12-11T21:45:25.889Z,2.73
2022-12-11T21:47:01.201Z,2.79
2022-12-11T21:49:29.885Z,2.80
2022-12-11T21:51:57.786Z,2.81
2022-12-11T21:54:27.288Z,2.79
2022-12-11T21:56:56.006Z,2.85
2022-12-11T21:59:24.352Z,2.90
2022-12-11T22:01:52.775Z,2.82
2022-12-11T22:04:21.314Z,2.86
2022-12-11T22:06:49.433Z,2.95
2022-12-11T22:09:21.651Z,2.90
2022-12-11T22:11:56.544Z,2.91
2022-12-11T22:14:26.239Z,2.94
2022-12-11T22:16:54.099Z,2.94
2022-12-11T22:19:21.924Z,2.94
2022-12-11T22:21:49.783Z,2.93
2022-12-11T22:24:18.842Z,2.90
2022-12-11T22:26:46.711Z,2.90
2022-12-11T22:29:16.024Z,2.91
2022-12-11T22:31:43.859Z,2.91
2022-12-11T22:34:11.925Z,2.94
2022-12-11T22:36:39.898Z,2.93
2022-12-11T22:39:08.045Z,2.87
2022-12-11T22:41:41.846Z,2.76
2022-12-11T22:44:16.816Z,2.85
2022-12-11T22:46:49.902Z,2.88
2022-12-11T22:49:18.745Z,2.90
2022-12-11T22:51:46.889Z,2.90
2022-12-11T22:54:14.689Z,2.91
2022-12-11T22:56:42.828Z,2.92
2022-12-11T22:59:10.958Z,2.84
2022-12-11T23:01:40.456Z,2.81
2022-12-11T23:04:08.426Z,2.79
2022-12-11T23:06:37.198Z,2.75
2022-12-11T23:09:05.231Z,2.79
2022-12-11T23:11:37.775Z,2.85
2022-12-11T23:14:09.082Z,2.82
2022-12-11T23:16:37.561Z,2.88
2022-12-11T23:19:07.356Z,2.77
2022-12-11T23:21:35.889Z,2.77
2022-12-11T23:24:05.851Z,2.85
2022-12-11T23:26:34.415Z,2.86
2022-12-11T23:29:03.179Z,2.85
2022-12-11T23:31:31.258Z,2.86
2022-12-11T23:33:59.810Z,2.89
2022-12-11T23:36:30.274Z,2.88
2022-12-11T23:38:58.862Z,2.85
2022-12-11T23:41:26.847Z,2.83
2022-12-11T23:43:55.033Z,2.69
2022-12-11T23:46:25.291Z,2.64
2022-12-11T23:48:54.861Z,2.63
2022-12-11T23:51:24.938Z,2.69
2022-12-11T23:53:55.178Z,2.57
2022-12-11T23:56:25.150Z,2.46
2022-12-11T23:58:53.760Z,2.52
